Haughton, Louisiana
Current Conditions -  °F | °C
As of 7:58 AM on Saturday 25 Oct 2014 (Local Time) from KBAD Reporting Station
Clear Clear  
Wind Chill: 52°   Ceiling: Unl
Heat Index: 52°   Visibility: 10mi
Dew Point: 51°   Wind: 3mph
Humidity: 98%   Direction: 140°SE
Pressure: 30.15"   Gusts: NA
Location:  32.53°N, 93.5°W
Report Text: KBAD 251258Z AUTO 14003KT 10SM CLR 11/11 A3015 RMK AO2 SLP212 T01110108
Loading
Personal Weather Stations






























Interactive Weather Map
Tropical Storm Tracking
New forecast layout! Learn more

10-Day Weather Forecast

Advertisements
Track Severe Weather on mobile